sensor_id;sensor_type;location;lat;lon;timestamp;pressure;altitude;pressure_sealevel;temperature;humidity
51528;BME280;37612;51.768;21.590;2022-10-16T00:02:20;100193.72;;;12.18;88.87
51528;BME280;37612;51.768;21.590;2022-10-16T00:06:22;100201.30;;;12.16;88.98
51528;BME280;37612;51.768;21.590;2022-10-16T00:10:23;100205.60;;;12.14;89.22
51528;BME280;37612;51.768;21.590;2022-10-16T00:14:25;100206.11;;;12.15;89.35
51528;BME280;37612;51.768;21.590;2022-10-16T00:18:27;100208.21;;;12.16;89.46
51528;BME280;37612;51.768;21.590;2022-10-16T00:22:29;100203.28;;;12.15;89.61
51528;BME280;37612;51.768;21.590;2022-10-16T00:26:32;100205.36;;;12.14;89.85
51528;BME280;37612;51.768;21.590;2022-10-16T00:30:34;100209.55;;;12.16;89.74
51528;BME280;37612;51.768;21.590;2022-10-16T00:34:38;100215.81;;;12.16;89.67
51528;BME280;37612;51.768;21.590;2022-10-16T00:38:40;100218.27;;;12.16;90.16
51528;BME280;37612;51.768;21.590;2022-10-16T00:42:42;100214.51;;;12.14;90.12
51528;BME280;37612;51.768;21.590;2022-10-16T00:46:44;100211.05;;;12.14;90.40
51528;BME280;37612;51.768;21.590;2022-10-16T00:50:45;100206.39;;;12.15;90.34
51528;BME280;37612;51.768;21.590;2022-10-16T00:54:47;100200.01;;;12.14;90.47
51528;BME280;37612;51.768;21.590;2022-10-16T00:58:50;100199.06;;;12.10;90.40
51528;BME280;37612;51.768;21.590;2022-10-16T01:02:56;100198.02;;;12.07;90.83
51528;BME280;37612;51.768;21.590;2022-10-16T01:07:12;100201.50;;;12.07;90.61
51528;BME280;37612;51.768;21.590;2022-10-16T01:19:31;100217.18;;;12.06;90.90
51528;BME280;37612;51.768;21.590;2022-10-16T01:23:58;100217.80;;;12.03;90.96
51528;BME280;37612;51.768;21.590;2022-10-16T01:28:02;100215.29;;;12.05;90.85
51528;BME280;37612;51.768;21.590;2022-10-16T01:36:27;100211.72;;;12.07;90.98
51528;BME280;37612;51.768;21.590;2022-10-16T01:40:32;100203.63;;;12.04;91.26
51528;BME280;37612;51.768;21.590;2022-10-16T01:44:35;100205.65;;;12.04;91.11
51528;BME280;37612;51.768;21.590;2022-10-16T01:48:39;100211.13;;;12.05;91.16
51528;BME280;37612;51.768;21.590;2022-10-16T01:52:43;100213.00;;;12.07;91.02
51528;BME280;37612;51.768;21.590;2022-10-16T01:56:47;100216.42;;;12.06;91.08
51528;BME280;37612;51.768;21.590;2022-10-16T02:00:50;100221.98;;;12.04;91.22
51528;BME280;37612;51.768;21.590;2022-10-16T02:04:55;100230.08;;;12.07;91.17
51528;BME280;37612;51.768;21.590;2022-10-16T02:08:59;100238.13;;;12.10;91.08
51528;BME280;37612;51.768;21.590;2022-10-16T02:13:03;100234.61;;;12.12;91.16
51528;BME280;37612;51.768;21.590;2022-10-16T02:17:11;100233.75;;;12.11;91.20
51528;BME280;37612;51.768;21.590;2022-10-16T02:21:26;100233.60;;;12.12;91.22
51528;BME280;37612;51.768;21.590;2022-10-16T02:25:30;100238.28;;;12.14;90.99
51528;BME280;37612;51.768;21.590;2022-10-16T02:29:33;100242.39;;;12.13;91.47
51528;BME280;37612;51.768;21.590;2022-10-16T02:33:37;100247.29;;;12.11;91.37
51528;BME280;37612;51.768;21.590;2022-10-16T02:37:40;100245.95;;;12.09;91.30
51528;BME280;37612;51.768;21.590;2022-10-16T02:41:42;100245.71;;;12.08;91.50
51528;BME280;37612;51.768;21.590;2022-10-16T02:45:43;100249.98;;;12.07;91.42
51528;BME280;37612;51.768;21.590;2022-10-16T02:49:45;100247.18;;;12.03;91.56
51528;BME280;37612;51.768;21.590;2022-10-16T02:53:47;100240.14;;;12.01;92.07
51528;BME280;37612;51.768;21.590;2022-10-16T02:57:48;100233.92;;;12.02;92.01
51528;BME280;37612;51.768;21.590;2022-10-16T03:01:50;100236.59;;;11.99;91.98
51528;BME280;37612;51.768;21.590;2022-10-16T03:05:52;100236.38;;;11.94;92.28
51528;BME280;37612;51.768;21.590;2022-10-16T03:09:53;100237.45;;;11.88;92.55
51528;BME280;37612;51.768;21.590;2022-10-16T03:13:56;100234.91;;;11.86;92.63
51528;BME280;37612;51.768;21.590;2022-10-16T03:17:58;100240.96;;;11.86;92.84
51528;BME280;37612;51.768;21.590;2022-10-16T03:22:00;100243.48;;;11.86;92.75
51528;BME280;37612;51.768;21.590;2022-10-16T03:26:01;100239.48;;;11.85;92.81
51528;BME280;37612;51.768;21.590;2022-10-16T03:30:03;100249.00;;;11.84;93.04
51528;BME280;37612;51.768;21.590;2022-10-16T03:34:05;100253.48;;;11.87;92.99
51528;BME280;37612;51.768;21.590;2022-10-16T03:38:06;100262.20;;;11.92;93.26
51528;BME280;37612;51.768;21.590;2022-10-16T03:42:08;100266.08;;;11.94;93.05
51528;BME280;37612;51.768;21.590;2022-10-16T03:46:10;100270.46;;;11.94;93.33
51528;BME280;37612;51.768;21.590;2022-10-16T03:50:11;100277.89;;;11.92;93.48
51528;BME280;37612;51.768;21.590;2022-10-16T03:54:13;100277.98;;;11.91;93.62
51528;BME280;37612;51.768;21.590;2022-10-16T03:58:14;100284.60;;;11.90;93.74
51528;BME280;37612;51.768;21.590;2022-10-16T04:02:16;100284.48;;;11.89;93.69
51528;BME280;37612;51.768;21.590;2022-10-16T04:06:18;100281.02;;;11.86;93.76
51528;BME280;37612;51.768;21.590;2022-10-16T04:10:19;100279.33;;;11.86;94.07
51528;BME280;37612;51.768;21.590;2022-10-16T04:14:21;100282.30;;;11.89;93.89
51528;BME280;37612;51.768;21.590;2022-10-16T04:18:23;100280.53;;;11.89;93.91
51528;BME280;37612;51.768;21.590;2022-10-16T04:22:24;100284.57;;;11.87;94.08
51528;BME280;37612;51.768;21.590;2022-10-16T04:26:26;100290.93;;;11.87;94.11
51528;BME280;37612;51.768;21.590;2022-10-16T04:30:31;100291.64;;;11.87;94.08
51528;BME280;37612;51.768;21.590;2022-10-16T04:34:34;100288.29;;;11.81;94.25
51528;BME280;37612;51.768;21.590;2022-10-16T04:38:36;100291.34;;;11.77;94.54
51528;BME280;37612;51.768;21.590;2022-10-16T04:42:38;100292.91;;;11.74;94.58
51528;BME280;37612;51.768;21.590;2022-10-16T04:46:40;100300.02;;;11.73;94.52
51528;BME280;37612;51.768;21.590;2022-10-16T04:50:41;100296.39;;;11.73;94.51
51528;BME280;37612;51.768;21.590;2022-10-16T04:54:43;100304.52;;;11.73;94.60
51528;BME280;37612;51.768;21.590;2022-10-16T04:58:46;100310.36;;;11.70;94.59
51528;BME280;37612;51.768;21.590;2022-10-16T05:02:49;100309.73;;;11.67;94.62
51528;BME280;37612;51.768;21.590;2022-10-16T05:06:56;100311.59;;;11.65;94.49
51528;BME280;37612;51.768;21.590;2022-10-16T05:11:00;100311.61;;;11.63;94.43
51528;BME280;37612;51.768;21.590;2022-10-16T05:15:03;100323.52;;;11.58;94.54
51528;BME280;37612;51.768;21.590;2022-10-16T05:19:05;100326.13;;;11.52;94.62
51528;BME280;37612;51.768;21.590;2022-10-16T05:23:06;100334.14;;;11.51;94.82
51528;BME280;37612;51.768;21.590;2022-10-16T05:27:11;100339.89;;;11.54;94.88
51528;BME280;37612;51.768;21.590;2022-10-16T05:31:22;100341.73;;;11.58;94.81
51528;BME280;37612;51.768;21.590;2022-10-16T05:35:24;100340.14;;;11.61;94.87
51528;BME280;37612;51.768;21.590;2022-10-16T05:39:26;100341.29;;;11.63;94.91
51528;BME280;37612;51.768;21.590;2022-10-16T05:43:28;100343.23;;;11.64;94.65
51528;BME280;37612;51.768;21.590;2022-10-16T05:47:29;100344.65;;;11.66;94.71
51528;BME280;37612;51.768;21.590;2022-10-16T05:51:31;100346.90;;;11.67;94.62
51528;BME280;37612;51.768;21.590;2022-10-16T05:55:33;100352.55;;;11.65;94.85
51528;BME280;37612;51.768;21.590;2022-10-16T05:59:34;100356.26;;;11.66;94.95
51528;BME280;37612;51.768;21.590;2022-10-16T06:03:36;100360.98;;;11.73;94.92
51528;BME280;37612;51.768;21.590;2022-10-16T06:07:37;100363.50;;;11.81;94.73
51528;BME280;37612;51.768;21.590;2022-10-16T06:11:39;100365.92;;;11.86;94.58
51528;BME280;37612;51.768;21.590;2022-10-16T06:15:41;100372.69;;;11.87;94.64
51528;BME280;37612;51.768;21.590;2022-10-16T06:19:43;100380.01;;;11.90;94.53
51528;BME280;37612;51.768;21.590;2022-10-16T06:23:45;100380.31;;;11.94;94.47
51528;BME280;37612;51.768;21.590;2022-10-16T06:27:47;100386.89;;;11.97;94.48
51528;BME280;37612;51.768;21.590;2022-10-16T06:31:49;100382.58;;;11.95;94.24
51528;BME280;37612;51.768;21.590;2022-10-16T06:35:51;100387.88;;;11.94;94.21
51528;BME280;37612;51.768;21.590;2022-10-16T06:39:52;100385.27;;;11.96;94.11
51528;BME280;37612;51.768;21.590;2022-10-16T06:43:54;100393.13;;;11.99;94.04
51528;BME280;37612;51.768;21.590;2022-10-16T06:47:55;100392.17;;;12.01;94.17
51528;BME280;37612;51.768;21.590;2022-10-16T06:51:57;100403.59;;;12.03;94.31
51528;BME280;37612;51.768;21.590;2022-10-16T06:56:09;100406.17;;;12.08;94.09
51528;BME280;37612;51.768;21.590;2022-10-16T07:00:11;100401.61;;;12.13;93.97
51528;BME280;37612;51.768;21.590;2022-10-16T07:04:13;100398.33;;;12.21;94.10
51528;BME280;37612;51.768;21.590;2022-10-16T07:08:14;100392.73;;;12.32;94.09
51528;BME280;37612;51.768;21.590;2022-10-16T07:12:16;100396.73;;;12.48;93.78
51528;BME280;37612;51.768;21.590;2022-10-16T07:16:18;100406.23;;;12.60;93.45
51528;BME280;37612;51.768;21.590;2022-10-16T07:20:21;100415.50;;;12.72;93.32
51528;BME280;37612;51.768;21.590;2022-10-16T07:24:22;100411.21;;;12.90;93.20
51528;BME280;37612;51.768;21.590;2022-10-16T07:28:24;100416.77;;;13.08;92.69
51528;BME280;37612;51.768;21.590;2022-10-16T07:32:25;100412.26;;;13.23;92.34
51528;BME280;37612;51.768;21.590;2022-10-16T07:36:27;100411.52;;;13.34;91.79
51528;BME280;37612;51.768;21.590;2022-10-16T07:40:29;100412.05;;;13.44;91.50
51528;BME280;37612;51.768;21.590;2022-10-16T07:44:30;100420.27;;;13.54;90.94
51528;BME280;37612;51.768;21.590;2022-10-16T07:48:32;100432.93;;;13.65;90.78
51528;BME280;37612;51.768;21.590;2022-10-16T07:52:34;100445.41;;;13.80;90.55
51528;BME280;37612;51.768;21.590;2022-10-16T07:56:36;100448.75;;;13.94;90.29
51528;BME280;37612;51.768;21.590;2022-10-16T08:00:38;100448.35;;;14.12;90.46
51528;BME280;37612;51.768;21.590;2022-10-16T08:04:40;100446.88;;;14.37;90.02
51528;BME280;37612;51.768;21.590;2022-10-16T08:08:41;100450.13;;;14.65;89.17
51528;BME280;37612;51.768;21.590;2022-10-16T08:12:43;100446.88;;;14.80;88.52
51528;BME280;37612;51.768;21.590;2022-10-16T08:16:44;100442.16;;;14.90;88.14
51528;BME280;37612;51.768;21.590;2022-10-16T08:20:47;100451.25;;;15.01;87.86
51528;BME280;37612;51.768;21.590;2022-10-16T08:24:51;100456.14;;;15.17;87.88
51528;BME280;37612;51.768;21.590;2022-10-16T08:28:53;100459.90;;;15.34;87.14
51528;BME280;37612;51.768;21.590;2022-10-16T08:32:55;100460.31;;;15.47;86.80
51528;BME280;37612;51.768;21.590;2022-10-16T08:37:08;100456.27;;;15.56;86.58
51528;BME280;37612;51.768;21.590;2022-10-16T08:50:25;100450.27;;;15.96;85.28
51528;BME280;37612;51.768;21.590;2022-10-16T08:54:32;100452.66;;;16.12;84.50
51528;BME280;37612;51.768;21.590;2022-10-16T08:58:43;100450.83;;;16.36;83.61
51528;BME280;37612;51.768;21.590;2022-10-16T09:02:55;100457.40;;;16.55;82.23
51528;BME280;37612;51.768;21.590;2022-10-16T09:07:49;100458.98;;;16.72;81.30
51528;BME280;37612;51.768;21.590;2022-10-16T09:15:39;100451.24;;;17.08;80.23
51528;BME280;37612;51.768;21.590;2022-10-16T09:19:50;100448.49;;;17.32;79.03
51528;BME280;37612;51.768;21.590;2022-10-16T09:24:10;100436.65;;;17.57;77.82
51528;BME280;37612;51.768;21.590;2022-10-16T09:28:33;100445.22;;;17.52;75.22
51528;BME280;37612;51.768;21.590;2022-10-16T09:33:43;100454.36;;;17.40;75.23
51528;BME280;37612;51.768;21.590;2022-10-16T09:37:52;100460.61;;;17.41;76.04
51528;BME280;37612;51.768;21.590;2022-10-16T09:41:55;100462.79;;;17.46;75.77
51528;BME280;37612;51.768;21.590;2022-10-16T09:46:02;100468.39;;;17.57;76.36
51528;BME280;37612;51.768;21.590;2022-10-16T09:50:05;100473.44;;;17.60;75.44
51528;BME280;37612;51.768;21.590;2022-10-16T09:54:21;100474.92;;;17.58;74.36
51528;BME280;37612;51.768;21.590;2022-10-16T09:58:23;100480.07;;;17.50;73.91
51528;BME280;37612;51.768;21.590;2022-10-16T10:02:35;100478.58;;;17.59;74.56
51528;BME280;37612;51.768;21.590;2022-10-16T10:06:52;100470.41;;;17.70;74.49
51528;BME280;37612;51.768;21.590;2022-10-16T10:11:00;100465.75;;;17.79;74.56
51528;BME280;37612;51.768;21.590;2022-10-16T10:19:14;100463.65;;;17.78;74.16
51528;BME280;37612;51.768;21.590;2022-10-16T10:23:27;100460.07;;;17.68;73.96
51528;BME280;37612;51.768;21.590;2022-10-16T10:31:42;100448.20;;;17.80;73.76
51528;BME280;37612;51.768;21.590;2022-10-16T10:35:50;100446.48;;;17.89;73.72
51528;BME280;37612;51.768;21.590;2022-10-16T10:44:15;100452.45;;;18.04;73.27
51528;BME280;37612;51.768;21.590;2022-10-16T10:52:43;100454.53;;;18.21;72.48
51528;BME280;37612;51.768;21.590;2022-10-16T11:01:04;100448.92;;;18.26;71.61
51528;BME280;37612;51.768;21.590;2022-10-16T11:09:30;100424.79;;;18.46;71.50
51528;BME280;37612;51.768;21.590;2022-10-16T11:17:44;100416.77;;;18.41;71.01
51528;BME280;37612;51.768;21.590;2022-10-16T11:26:18;100409.52;;;18.42;70.55
51528;BME280;37612;51.768;21.590;2022-10-16T11:30:25;100412.46;;;18.41;70.43
51528;BME280;37612;51.768;21.590;2022-10-16T11:38:52;100418.20;;;18.48;70.33
51528;BME280;37612;51.768;21.590;2022-10-16T11:43:02;100419.48;;;18.57;70.04
51528;BME280;37612;51.768;21.590;2022-10-16T11:47:27;100417.02;;;18.66;69.92
51528;BME280;37612;51.768;21.590;2022-10-16T11:51:59;100414.39;;;18.73;69.83
51528;BME280;37612;51.768;21.590;2022-10-16T11:56:08;100414.80;;;18.69;69.29
51528;BME280;37612;51.768;21.590;2022-10-16T12:10:41;100431.29;;;18.95;69.68
51528;BME280;37612;51.768;21.590;2022-10-16T12:24:19;100431.11;;;18.93;68.72
51528;BME280;37612;51.768;21.590;2022-10-16T12:28:38;100434.96;;;18.88;68.34
51528;BME280;37612;51.768;21.590;2022-10-16T12:32:56;100437.56;;;18.82;68.23
51528;BME280;37612;51.768;21.590;2022-10-16T12:37:23;100430.74;;;18.78;68.65
51528;BME280;37612;51.768;21.590;2022-10-16T12:42:04;100421.60;;;18.75;68.70
51528;BME280;37612;51.768;21.590;2022-10-16T12:50:26;100422.80;;;18.66;68.86
51528;BME280;37612;51.768;21.590;2022-10-16T12:54:37;100426.61;;;18.64;68.87
51528;BME280;37612;51.768;21.590;2022-10-16T13:03:30;100420.33;;;18.54;69.38
51528;BME280;37612;51.768;21.590;2022-10-16T13:16:29;100438.15;;;18.51;69.84
51528;BME280;37612;51.768;21.590;2022-10-16T13:30:14;100429.47;;;18.54;70.54
51528;BME280;37612;51.768;21.590;2022-10-16T13:34:55;100428.92;;;18.57;70.59
51528;BME280;37612;51.768;21.590;2022-10-16T13:39:14;100433.33;;;18.56;70.32
51528;BME280;37612;51.768;21.590;2022-10-16T13:43:26;100431.69;;;18.50;70.66
51528;BME280;37612;51.768;21.590;2022-10-16T13:47:29;100429.16;;;18.45;70.92
51528;BME280;37612;51.768;21.590;2022-10-16T13:51:40;100433.95;;;18.39;71.03
51528;BME280;37612;51.768;21.590;2022-10-16T13:55:45;100448.36;;;18.29;70.96
51528;BME280;37612;51.768;21.590;2022-10-16T13:59:53;100457.14;;;18.18;71.34
51528;BME280;37612;51.768;21.590;2022-10-16T14:04:17;100459.65;;;18.11;71.50
51528;BME280;37612;51.768;21.590;2022-10-16T14:08:36;100463.61;;;18.07;71.92
51528;BME280;37612;51.768;21.590;2022-10-16T14:12:53;100472.59;;;18.01;72.17
51528;BME280;37612;51.768;21.590;2022-10-16T14:16:58;100474.45;;;17.94;72.32
51528;BME280;37612;51.768;21.590;2022-10-16T14:21:04;100478.27;;;17.86;72.60
51528;BME280;37612;51.768;21.590;2022-10-16T14:25:24;100476.08;;;17.79;72.90
51528;BME280;37612;51.768;21.590;2022-10-16T14:30:33;100477.70;;;17.71;73.17
51528;BME280;37612;51.768;21.590;2022-10-16T14:39:51;100482.85;;;17.63;73.86
51528;BME280;37612;51.768;21.590;2022-10-16T14:44:09;100480.58;;;17.58;74.10
51528;BME280;37612;51.768;21.590;2022-10-16T14:48:40;100483.44;;;17.53;74.34
51528;BME280;37612;51.768;21.590;2022-10-16T14:53:01;100484.39;;;17.50;74.47
51528;BME280;37612;51.768;21.590;2022-10-16T14:57:17;100484.55;;;17.45;74.70
51528;BME280;37612;51.768;21.590;2022-10-16T15:01:27;100487.23;;;17.40;74.92
51528;BME280;37612;51.768;21.590;2022-10-16T15:05:53;100486.11;;;17.39;74.92
51528;BME280;37612;51.768;21.590;2022-10-16T15:10:16;100488.42;;;17.40;75.03
51528;BME280;37612;51.768;21.590;2022-10-16T15:20:05;100507.54;;;17.32;75.40
51528;BME280;37612;51.768;21.590;2022-10-16T15:24:45;100508.51;;;17.26;75.66
51528;BME280;37612;51.768;21.590;2022-10-16T15:29:07;100507.00;;;17.20;75.87
51528;BME280;37612;51.768;21.590;2022-10-16T15:33:17;100509.77;;;17.15;75.91
51528;BME280;37612;51.768;21.590;2022-10-16T15:37:24;100510.17;;;17.13;75.88
51528;BME280;37612;51.768;21.590;2022-10-16T15:41:26;100508.09;;;17.11;75.95
51528;BME280;37612;51.768;21.590;2022-10-16T15:45:28;100508.30;;;17.03;76.06
51528;BME280;37612;51.768;21.590;2022-10-16T15:49:30;100508.45;;;16.91;76.38
51528;BME280;37612;51.768;21.590;2022-10-16T15:53:31;100513.20;;;16.81;76.56
51528;BME280;37612;51.768;21.590;2022-10-16T15:57:35;100518.77;;;16.71;76.79
51528;BME280;37612;51.768;21.590;2022-10-16T16:01:43;100522.38;;;16.64;77.06
51528;BME280;37612;51.768;21.590;2022-10-16T16:05:53;100535.30;;;16.59;77.12
51528;BME280;37612;51.768;21.590;2022-10-16T16:10:18;100546.14;;;16.59;77.25
51528;BME280;37612;51.768;21.590;2022-10-16T16:20:05;100552.16;;;16.43;77.81
51528;BME280;37612;51.768;21.590;2022-10-16T16:24:12;100557.27;;;16.33;78.18
51528;BME280;37612;51.768;21.590;2022-10-16T16:28:16;100559.98;;;16.29;78.30
51528;BME280;37612;51.768;21.590;2022-10-16T16:32:21;100564.45;;;16.30;78.34
51528;BME280;37612;51.768;21.590;2022-10-16T16:36:28;100569.13;;;16.32;78.48
51528;BME280;37612;51.768;21.590;2022-10-16T16:40:35;100571.13;;;16.32;78.59
51528;BME280;37612;51.768;21.590;2022-10-16T16:49:15;100571.47;;;16.29;78.84
51528;BME280;37612;51.768;21.590;2022-10-16T16:53:25;100572.64;;;16.29;78.82
51528;BME280;37612;51.768;21.590;2022-10-16T16:57:32;100578.14;;;16.27;79.12
51528;BME280;37612;51.768;21.590;2022-10-16T17:01:46;100580.80;;;16.22;79.21
51528;BME280;37612;51.768;21.590;2022-10-16T17:06:12;100581.45;;;16.22;79.38
51528;BME280;37612;51.768;21.590;2022-10-16T17:10:57;100591.14;;;16.25;79.38
51528;BME280;37612;51.768;21.590;2022-10-16T17:15:21;100593.78;;;16.23;79.45
51528;BME280;37612;51.768;21.590;2022-10-16T17:19:55;100600.31;;;16.20;79.45
51528;BME280;37612;51.768;21.590;2022-10-16T17:24:00;100605.21;;;16.21;79.51
51528;BME280;37612;51.768;21.590;2022-10-16T17:28:11;100611.84;;;16.19;79.58
51528;BME280;37612;51.768;21.590;2022-10-16T17:32:17;100620.84;;;16.15;79.63
51528;BME280;37612;51.768;21.590;2022-10-16T17:36:27;100617.39;;;16.10;79.69
51528;BME280;37612;51.768;21.590;2022-10-16T17:40:37;100618.11;;;16.09;79.78
51528;BME280;37612;51.768;21.590;2022-10-16T17:44:44;100620.21;;;16.07;79.94
51528;BME280;37612;51.768;21.590;2022-10-16T17:48:56;100623.18;;;16.02;80.01
51528;BME280;37612;51.768;21.590;2022-10-16T17:53:01;100627.59;;;16.00;80.01
51528;BME280;37612;51.768;21.590;2022-10-16T17:57:06;100623.88;;;15.95;80.16
51528;BME280;37612;51.768;21.590;2022-10-16T18:01:15;100629.59;;;15.89;80.23
51528;BME280;37612;51.768;21.590;2022-10-16T18:05:22;100634.66;;;15.86;80.34
51528;BME280;37612;51.768;21.590;2022-10-16T18:09:34;100633.38;;;15.83;80.50
51528;BME280;37612;51.768;21.590;2022-10-16T18:13:45;100640.59;;;15.80;80.51
51528;BME280;37612;51.768;21.590;2022-10-16T18:17:50;100651.10;;;15.77;80.61
51528;BME280;37612;51.768;21.590;2022-10-16T18:21:54;100661.69;;;15.75;80.55
51528;BME280;37612;51.768;21.590;2022-10-16T18:26:03;100668.25;;;15.70;80.63
51528;BME280;37612;51.768;21.590;2022-10-16T18:30:08;100675.23;;;15.63;80.73
51528;BME280;37612;51.768;21.590;2022-10-16T18:34:11;100680.80;;;15.60;80.92
51528;BME280;37612;51.768;21.590;2022-10-16T18:38:12;100692.05;;;15.57;80.94
51528;BME280;37612;51.768;21.590;2022-10-16T18:42:15;100691.89;;;15.52;81.08
51528;BME280;37612;51.768;21.590;2022-10-16T18:46:25;100687.20;;;15.47;81.25
51528;BME280;37612;51.768;21.590;2022-10-16T18:50:27;100690.58;;;15.44;81.31
51528;BME280;37612;51.768;21.590;2022-10-16T18:54:29;100699.13;;;15.41;81.49
51528;BME280;37612;51.768;21.590;2022-10-16T18:58:32;100704.33;;;15.38;81.61
51528;BME280;37612;51.768;21.590;2022-10-16T19:02:34;100702.97;;;15.34;81.57
51528;BME280;37612;51.768;21.590;2022-10-16T19:06:37;100700.54;;;15.32;81.75
51528;BME280;37612;51.768;21.590;2022-10-16T19:10:40;100705.70;;;15.31;81.74
51528;BME280;37612;51.768;21.590;2022-10-16T19:14:46;100708.59;;;15.26;81.91
51528;BME280;37612;51.768;21.590;2022-10-16T19:18:51;100719.01;;;15.17;81.98
51528;BME280;37612;51.768;21.590;2022-10-16T19:22:55;100724.80;;;15.13;82.13
51528;BME280;37612;51.768;21.590;2022-10-16T19:27:01;100726.33;;;15.06;82.09
51528;BME280;37612;51.768;21.590;2022-10-16T19:31:03;100726.55;;;14.97;82.24
51528;BME280;37612;51.768;21.590;2022-10-16T19:35:05;100736.23;;;14.89;82.43
51528;BME280;37612;51.768;21.590;2022-10-16T19:39:13;100740.03;;;14.83;82.62
51528;BME280;37612;51.768;21.590;2022-10-16T19:43:16;100743.21;;;14.77;82.62
51528;BME280;37612;51.768;21.590;2022-10-16T19:47:19;100754.12;;;14.66;82.85
51528;BME280;37612;51.768;21.590;2022-10-16T19:51:21;100754.81;;;14.58;83.13
51528;BME280;37612;51.768;21.590;2022-10-16T19:55:23;100753.23;;;14.54;83.20
51528;BME280;37612;51.768;21.590;2022-10-16T19:59:25;100762.20;;;14.50;83.39
51528;BME280;37612;51.768;21.590;2022-10-16T20:03:27;100766.39;;;14.45;83.65
51528;BME280;37612;51.768;21.590;2022-10-16T20:07:28;100770.77;;;14.42;83.96
51528;BME280;37612;51.768;21.590;2022-10-16T20:11:31;100776.38;;;14.43;84.27
51528;BME280;37612;51.768;21.590;2022-10-16T20:15:35;100777.09;;;14.43;84.29
51528;BME280;37612;51.768;21.590;2022-10-16T20:19:37;100783.29;;;14.41;84.57
51528;BME280;37612;51.768;21.590;2022-10-16T20:23:40;100782.84;;;14.37;84.66
51528;BME280;37612;51.768;21.590;2022-10-16T20:27:42;100783.30;;;14.36;84.69
51528;BME280;37612;51.768;21.590;2022-10-16T20:31:47;100782.83;;;14.37;84.82
51528;BME280;37612;51.768;21.590;2022-10-16T20:35:49;100784.41;;;14.32;84.94
51528;BME280;37612;51.768;21.590;2022-10-16T20:39:51;100782.65;;;14.27;85.14
51528;BME280;37612;51.768;21.590;2022-10-16T20:43:53;100788.33;;;14.25;85.40
51528;BME280;37612;51.768;21.590;2022-10-16T20:47:56;100791.91;;;14.24;85.28
51528;BME280;37612;51.768;21.590;2022-10-16T20:51:58;100796.82;;;14.20;85.36
51528;BME280;37612;51.768;21.590;2022-10-16T20:56:02;100798.51;;;14.17;85.61
51528;BME280;37612;51.768;21.590;2022-10-16T21:00:05;100801.40;;;14.17;85.93
51528;BME280;37612;51.768;21.590;2022-10-16T21:04:07;100802.16;;;14.22;86.03
51528;BME280;37612;51.768;21.590;2022-10-16T21:08:08;100805.89;;;14.25;86.02
51528;BME280;37612;51.768;21.590;2022-10-16T21:12:13;100826.92;;;14.23;86.12
51528;BME280;37612;51.768;21.590;2022-10-16T21:16:15;100834.30;;;14.25;86.24
51528;BME280;37612;51.768;21.590;2022-10-16T21:20:16;100836.65;;;14.24;86.10
51528;BME280;37612;51.768;21.590;2022-10-16T21:24:21;100841.56;;;14.20;86.15
51528;BME280;37612;51.768;21.590;2022-10-16T21:28:23;100847.63;;;14.15;86.36
51528;BME280;37612;51.768;21.590;2022-10-16T21:32:24;100843.55;;;14.11;86.50
51528;BME280;37612;51.768;21.590;2022-10-16T21:40:59;100841.26;;;14.01;86.53
51528;BME280;37612;51.768;21.590;2022-10-16T21:45:04;100848.05;;;13.94;86.61
51528;BME280;37612;51.768;21.590;2022-10-16T21:49:08;100857.34;;;13.84;86.81
51528;BME280;37612;51.768;21.590;2022-10-16T21:53:10;100860.03;;;13.75;86.98
51528;BME280;37612;51.768;21.590;2022-10-16T21:57:12;100861.85;;;13.71;86.94
51528;BME280;37612;51.768;21.590;2022-10-16T22:01:19;100860.11;;;13.66;86.86
51528;BME280;37612;51.768;21.590;2022-10-16T22:05:21;100858.22;;;13.56;86.97
51528;BME280;37612;51.768;21.590;2022-10-16T22:09:23;100861.20;;;13.46;87.46
51528;BME280;37612;51.768;21.590;2022-10-16T22:13:29;100869.70;;;13.36;87.63
51528;BME280;37612;51.768;21.590;2022-10-16T22:17:31;100873.19;;;13.25;87.59
51528;BME280;37612;51.768;21.590;2022-10-16T22:21:37;100870.23;;;13.19;87.68
51528;BME280;37612;51.768;21.590;2022-10-16T22:25:39;100864.98;;;13.13;88.02
51528;BME280;37612;51.768;21.590;2022-10-16T22:29:41;100865.60;;;13.08;88.13
51528;BME280;37612;51.768;21.590;2022-10-16T22:33:43;100864.83;;;13.00;88.43
51528;BME280;37612;51.768;21.590;2022-10-16T22:37:45;100864.98;;;12.90;88.57
51528;BME280;37612;51.768;21.590;2022-10-16T22:41:46;100859.89;;;12.86;89.02
51528;BME280;37612;51.768;21.590;2022-10-16T22:45:48;100860.20;;;12.85;89.09
51528;BME280;37612;51.768;21.590;2022-10-16T22:49:54;100861.71;;;12.83;89.17
51528;BME280;37612;51.768;21.590;2022-10-16T22:53:58;100870.65;;;12.78;89.23
51528;BME280;37612;51.768;21.590;2022-10-16T22:58:00;100879.63;;;12.70;89.38
51528;BME280;37612;51.768;21.590;2022-10-16T23:02:02;100886.81;;;12.65;89.08
51528;BME280;37612;51.768;21.590;2022-10-16T23:06:04;100881.40;;;12.61;89.31
51528;BME280;37612;51.768;21.590;2022-10-16T23:10:06;100886.66;;;12.56;89.10
51528;BME280;37612;51.768;21.590;2022-10-16T23:14:08;100894.60;;;12.47;89.02
51528;BME280;37612;51.768;21.590;2022-10-16T23:18:10;100901.94;;;12.36;89.48
51528;BME280;37612;51.768;21.590;2022-10-16T23:22:12;100911.02;;;12.32;89.76
51528;BME280;37612;51.768;21.590;2022-10-16T23:26:16;100917.79;;;12.29;89.81
51528;BME280;37612;51.768;21.590;2022-10-16T23:30:18;100921.75;;;12.29;90.03